createdAt,value
2022-10-09T00:01:03.564Z,4.55
2022-10-09T00:03:31.250Z,4.78
2022-10-09T00:05:58.990Z,4.93
2022-10-09T00:08:26.621Z,4.65
2022-10-09T00:10:54.351Z,5.18
2022-10-09T00:13:21.881Z,5.18
2022-10-09T00:15:49.420Z,4.82
2022-10-09T00:18:18.034Z,4.97
2022-10-09T00:20:47.085Z,5.03
2022-10-09T00:23:17.262Z,4.55
2022-10-09T00:25:54.978Z,4.78
2022-10-09T00:28:23.110Z,3.97
2022-10-09T00:30:50.798Z,3.80
2022-10-09T00:33:18.612Z,4.30
2022-10-09T00:35:46.269Z,3.88
2022-10-09T00:38:14.013Z,4.55
2022-10-09T00:40:41.545Z,4.82
2022-10-09T00:43:17.782Z,4.88
2022-10-09T00:45:48.872Z,4.72
2022-10-09T00:48:17.661Z,4.68
2022-10-09T00:50:47.088Z,4.72
2022-10-09T00:53:16.592Z,4.75
2022-10-09T00:55:44.180Z,4.38
2022-10-09T00:58:12.893Z,4.05
2022-10-09T01:00:40.812Z,4.20
2022-10-09T01:03:08.556Z,4.57
2022-10-09T01:05:36.057Z,4.43
2022-10-09T01:08:10.645Z,4.10
2022-10-09T01:10:54.028Z,4.50
2022-10-09T01:13:21.493Z,4.22
2022-10-09T01:15:54.086Z,4.40
2022-10-09T01:18:21.627Z,4.57
2022-10-09T01:20:56.443Z,4.28
2022-10-09T01:23:46.174Z,4.45
2022-10-09T01:26:33.038Z,3.78
2022-10-09T01:29:03.455Z,5.20
2022-10-09T01:31:32.189Z,4.45
2022-10-09T01:34:01.704Z,4.20
2022-10-09T01:36:31.109Z,4.15
2022-10-09T01:39:00.790Z,4.40
2022-10-09T01:41:28.405Z,4.63
2022-10-09T01:43:55.904Z,5.10
2022-10-09T01:46:25.505Z,4.82
2022-10-09T01:49:11.855Z,4.43
2022-10-09T01:51:43.158Z,4.05
2022-10-09T01:54:13.446Z,4.85
2022-10-09T01:56:41.759Z,4.45
2022-10-09T01:59:15.890Z,4.55
2022-10-09T02:01:44.967Z,4.40
2022-10-09T02:04:14.018Z,4.22
2022-10-09T02:06:42.380Z,5.47
2022-10-09T02:09:13.387Z,3.88
2022-10-09T02:11:42.631Z,4.10
2022-10-09T02:14:10.292Z,4.53
2022-10-09T02:16:39.989Z,4.07
2022-10-09T02:19:14.197Z,4.95
2022-10-09T02:21:51.347Z,4.50
2022-10-09T02:24:21.719Z,4.40
2022-10-09T02:26:49.485Z,5.07
2022-10-09T02:29:17.575Z,4.78
2022-10-09T02:31:45.357Z,4.78
2022-10-09T02:34:14.756Z,5.22
2022-10-09T02:36:42.423Z,4.93
2022-10-09T02:39:10.060Z,5.00
2022-10-09T02:41:37.560Z,5.30
2022-10-09T02:44:05.996Z,5.15
2022-10-09T02:46:34.147Z,5.20
2022-10-09T02:49:01.771Z,4.90
2022-10-09T02:51:29.549Z,5.15
2022-10-09T02:53:59.423Z,5.00
2022-10-09T02:56:27.409Z,5.65
2022-10-09T02:58:55.236Z,6.00
2022-10-09T03:01:22.979Z,5.63
2022-10-09T03:03:50.546Z,5.47
2022-10-09T03:06:20.540Z,6.03
2022-10-09T03:08:48.960Z,5.60
2022-10-09T03:11:17.380Z,5.43
2022-10-09T03:13:45.402Z,5.78
2022-10-09T03:16:14.924Z,5.35
2022-10-09T03:18:42.508Z,5.13
2022-10-09T03:21:11.341Z,5.70
2022-10-09T03:23:39.078Z,5.57
2022-10-09T03:26:07.794Z,5.85
2022-10-09T03:28:38.940Z,5.65
2022-10-09T03:31:06.906Z,5.80
2022-10-09T03:33:35.049Z,5.78
2022-10-09T03:36:02.834Z,5.70
2022-10-09T03:38:30.334Z,5.60
2022-10-09T03:41:01.439Z,5.53
2022-10-09T03:43:28.975Z,6.00
2022-10-09T03:46:00.374Z,6.25
2022-10-09T03:48:28.581Z,5.10
2022-10-09T03:50:56.072Z,5.55
2022-10-09T03:53:23.558Z,5.25
2022-10-09T03:55:51.063Z,5.30
2022-10-09T03:58:18.573Z,4.95
2022-10-09T04:00:46.560Z,5.47
2022-10-09T04:03:14.121Z,5.53
2022-10-09T04:05:41.642Z,4.82
2022-10-09T04:08:09.373Z,5.68
2022-10-09T04:10:36.875Z,4.95
2022-10-09T04:13:04.581Z,5.28
2022-10-09T04:15:32.150Z,5.20
2022-10-09T04:17:59.695Z,5.05
2022-10-09T04:20:27.242Z,4.93
2022-10-09T04:22:54.910Z,5.47
2022-10-09T04:25:22.418Z,5.07
2022-10-09T04:27:49.953Z,5.68
2022-10-09T04:30:17.532Z,5.47
2022-10-09T04:32:48.097Z,4.97
2022-10-09T04:35:16.682Z,5.03
2022-10-09T04:37:44.268Z,4.15
2022-10-09T04:40:11.806Z,5.13
2022-10-09T04:42:39.423Z,4.35
2022-10-09T04:45:07.105Z,4.80
2022-10-09T04:47:35.252Z,4.57
2022-10-09T04:50:02.836Z,5.07
2022-10-09T04:52:30.497Z,4.55
2022-10-09T04:54:58.046Z,4.55
2022-10-09T04:57:25.558Z,4.28
2022-10-09T04:59:53.100Z,4.65
2022-10-09T05:02:20.653Z,4.70
2022-10-09T05:04:48.181Z,4.82
2022-10-09T05:07:15.735Z,5.13
2022-10-09T05:09:43.252Z,4.85
2022-10-09T05:12:10.747Z,4.40
2022-10-09T05:14:38.238Z,5.15
2022-10-09T05:17:14.069Z,6.45
2022-10-09T05:19:42.377Z,4.70
2022-10-09T05:22:09.934Z,6.10
2022-10-09T05:24:37.427Z,5.13
2022-10-09T05:27:04.983Z,5.10
2022-10-09T05:29:33.271Z,5.22
2022-10-09T05:32:00.828Z,4.45
2022-10-09T05:34:28.490Z,4.80
2022-10-09T05:36:55.978Z,4.28
2022-10-09T05:39:23.526Z,4.78
2022-10-09T05:41:51.015Z,4.78
2022-10-09T05:44:18.509Z,4.40
2022-10-09T05:46:46.016Z,4.22
2022-10-09T05:49:13.506Z,4.82
2022-10-09T05:51:44.369Z,4.40
2022-10-09T05:54:15.841Z,4.40
2022-10-09T05:56:44.304Z,4.03
2022-10-09T05:59:14.808Z,4.40
2022-10-09T06:01:43.737Z,4.43
2022-10-09T06:04:15.788Z,4.50
2022-10-09T06:06:43.962Z,4.50
2022-10-09T06:09:11.955Z,4.55
2022-10-09T06:11:40.001Z,4.22
2022-10-09T06:14:08.641Z,4.68
2022-10-09T06:16:38.305Z,4.93
2022-10-09T06:19:06.719Z,4.75
2022-10-09T06:21:34.615Z,4.20
2022-10-09T06:24:03.568Z,4.53
2022-10-09T06:26:31.586Z,4.63
2022-10-09T06:29:00.597Z,4.82
2022-10-09T06:31:29.575Z,4.10
2022-10-09T06:33:58.881Z,4.78
2022-10-09T06:36:27.841Z,4.63
2022-10-09T06:38:55.640Z,4.40
2022-10-09T06:41:24.642Z,4.38
2022-10-09T06:43:53.859Z,4.22
2022-10-09T06:46:22.534Z,4.65
2022-10-09T06:48:50.094Z,5.25
2022-10-09T06:51:19.426Z,4.47
2022-10-09T06:53:48.356Z,4.63
2022-10-09T06:56:16.337Z,4.78
2022-10-09T06:58:44.056Z,4.38
2022-10-09T07:01:16.623Z,4.22
2022-10-09T07:03:45.828Z,4.63
2022-10-09T07:06:17.938Z,4.85
2022-10-09T07:08:46.559Z,4.35
2022-10-09T07:11:20.854Z,4.30
2022-10-09T07:13:49.321Z,4.70
2022-10-09T07:16:20.522Z,4.07
2022-10-09T07:18:48.376Z,4.88
2022-10-09T07:21:16.422Z,4.85
2022-10-09T07:23:44.142Z,4.25
2022-10-09T07:26:16.836Z,4.75
2022-10-09T07:28:44.469Z,4.03
2022-10-09T07:31:12.461Z,4.50
2022-10-09T07:33:41.553Z,4.63
2022-10-09T07:36:10.100Z,4.25
2022-10-09T07:38:37.617Z,4.53
2022-10-09T07:41:06.620Z,3.90
2022-10-09T07:43:38.134Z,4.18
2022-10-09T07:46:06.474Z,3.80
2022-10-09T07:48:34.764Z,4.65
2022-10-09T07:51:09.372Z,4.18
2022-10-09T07:53:36.968Z,4.65
2022-10-09T07:56:04.817Z,4.65
2022-10-09T07:58:32.460Z,4.30
2022-10-09T08:01:09.693Z,4.50
2022-10-09T08:03:38.121Z,5.07
2022-10-09T08:06:06.056Z,4.20
2022-10-09T08:08:33.847Z,3.78
2022-10-09T08:11:01.394Z,4.50
2022-10-09T08:13:28.929Z,4.05
2022-10-09T08:15:59.424Z,4.70
2022-10-09T08:18:26.969Z,4.03
2022-10-09T08:21:02.422Z,4.50
2022-10-09T08:23:29.921Z,4.45
2022-10-09T08:25:57.478Z,4.35
2022-10-09T08:28:25.030Z,4.22
2022-10-09T08:30:52.630Z,4.55
2022-10-09T08:33:21.968Z,4.88
2022-10-09T08:35:50.142Z,4.53
2022-10-09T08:38:44.849Z,4.38
2022-10-09T08:41:17.415Z,4.40
2022-10-09T08:43:46.367Z,4.18
2022-10-09T08:46:26.584Z,4.50
2022-10-09T08:48:54.429Z,4.25
2022-10-09T08:51:26.189Z,4.57
2022-10-09T08:53:56.859Z,4.40
2022-10-09T08:56:25.834Z,4.28
2022-10-09T08:58:53.379Z,4.65
2022-10-09T09:01:31.236Z,4.32
2022-10-09T09:04:09.705Z,4.60
2022-10-09T09:06:37.190Z,4.57
2022-10-09T09:09:24.247Z,4.35
2022-10-09T09:12:11.982Z,4.72
2022-10-09T09:14:57.835Z,4.40
2022-10-09T09:17:31.885Z,4.50
2022-10-09T09:20:11.444Z,5.13
2022-10-09T09:22:40.625Z,4.97
2022-10-09T09:25:34.425Z,5.10
2022-10-09T09:28:12.646Z,5.72
2022-10-09T09:30:47.220Z,5.20
2022-10-09T09:33:45.051Z,5.65
2022-10-09T09:36:22.970Z,5.78
2022-10-09T09:39:26.057Z,4.90
2022-10-09T09:41:38.146Z,4.82
2022-10-09T09:44:06.830Z,4.43
2022-10-09T09:46:34.716Z,5.00
2022-10-09T09:49:04.813Z,4.90
2022-10-09T09:51:36.706Z,4.75
2022-10-09T09:54:07.160Z,4.82
2022-10-09T09:56:59.900Z,4.88
2022-10-09T09:59:37.904Z,4.97
2022-10-09T10:02:12.252Z,4.55
2022-10-09T10:04:49.216Z,5.00
2022-10-09T10:07:27.491Z,4.18
2022-10-09T10:10:10.200Z,4.28
2022-10-09T10:12:48.788Z,4.45
2022-10-09T10:15:24.535Z,4.70
2022-10-09T10:17:57.973Z,4.78
2022-10-09T10:20:25.772Z,4.38
2022-10-09T10:22:54.275Z,3.60
2022-10-09T10:25:24.373Z,4.25
2022-10-09T10:27:53.510Z,4.20
2022-10-09T10:30:21.185Z,4.22
2022-10-09T10:33:18.174Z,3.80
2022-10-09T10:35:46.361Z,3.80
2022-10-09T10:38:32.797Z,4.03
2022-10-09T10:41:09.810Z,3.35
2022-10-09T10:43:57.562Z,3.78
2022-10-09T10:46:25.080Z,3.85
2022-10-09T10:48:53.261Z,3.72
2022-10-09T10:51:35.802Z,3.33
2022-10-09T10:54:06.795Z,3.20
2022-10-09T10:56:43.558Z,3.30
2022-10-09T10:59:26.613Z,3.30
2022-10-09T11:02:00.299Z,3.10
2022-10-09T11:04:37.029Z,3.30
2022-10-09T11:07:29.174Z,3.30
2022-10-09T11:10:05.838Z,2.95
2022-10-09T11:12:48.266Z,2.95
2022-10-09T11:15:22.161Z,3.42
2022-10-09T11:17:58.351Z,2.88
2022-10-09T11:21:04.598Z,2.90
2022-10-09T11:23:37.748Z,3.03
2022-10-09T11:26:05.279Z,3.15
2022-10-09T11:28:43.635Z,3.25
2022-10-09T11:31:19.943Z,3.00
2022-10-09T11:33:50.022Z,3.35
2022-10-09T11:36:25.910Z,3.10
2022-10-09T11:38:56.273Z,2.97
2022-10-09T11:41:24.235Z,3.00
2022-10-09T11:43:55.721Z,3.92
2022-10-09T11:46:41.578Z,3.00
2022-10-09T11:49:21.947Z,3.28
2022-10-09T11:52:11.831Z,3.00
2022-10-09T11:54:40.890Z,2.65
2022-10-09T11:57:12.924Z,2.80
2022-10-09T11:59:42.680Z,3.00
2022-10-09T12:02:29.844Z,3.30
2022-10-09T12:04:57.497Z,2.90
2022-10-09T12:07:30.488Z,3.38
2022-10-09T12:10:07.502Z,3.35
2022-10-09T12:12:37.622Z,3.28
2022-10-09T12:15:23.035Z,3.17
2022-10-09T12:17:50.662Z,2.97
2022-10-09T12:20:20.083Z,3.20
2022-10-09T12:23:13.812Z,3.20
2022-10-09T12:25:43.234Z,2.95
2022-10-09T12:28:34.085Z,3.40
2022-10-09T12:31:02.682Z,3.00
2022-10-09T12:33:35.654Z,3.03
2022-10-09T12:36:06.207Z,3.30
2022-10-09T12:38:33.756Z,3.13
2022-10-09T12:41:03.531Z,3.10
2022-10-09T12:43:32.375Z,3.60
2022-10-09T12:46:00.628Z,3.00
2022-10-09T12:48:29.046Z,3.13
2022-10-09T12:50:56.922Z,3.47
2022-10-09T12:53:25.843Z,3.17
2022-10-09T12:55:55.893Z,2.95
2022-10-09T12:58:24.931Z,3.00
2022-10-09T13:00:53.903Z,3.30
2022-10-09T13:03:34.785Z,3.50
2022-10-09T13:06:03.457Z,3.08
2022-10-09T13:08:33.062Z,3.45
2022-10-09T13:11:11.739Z,3.13
2022-10-09T13:13:39.961Z,3.15
2022-10-09T13:16:09.468Z,2.60
2022-10-09T13:18:38.097Z,3.10
2022-10-09T13:21:07.226Z,2.65
2022-10-09T13:23:35.577Z,2.70
2022-10-09T13:26:04.038Z,2.92
2022-10-09T13:28:31.681Z,2.78
2022-10-09T13:31:08.889Z,2.58
2022-10-09T13:33:36.583Z,2.30
2022-10-09T13:36:04.188Z,2.60
2022-10-09T13:38:34.955Z,2.45
2022-10-09T13:41:03.096Z,2.40
2022-10-09T13:43:31.076Z,2.95
2022-10-09T13:45:59.021Z,2.72
2022-10-09T13:48:26.640Z,2.97
2022-10-09T13:50:54.138Z,2.67
2022-10-09T13:53:21.851Z,2.90
2022-10-09T13:55:49.367Z,2.63
2022-10-09T13:58:16.973Z,3.50
2022-10-09T14:00:45.405Z,2.90
2022-10-09T14:03:13.036Z,2.95
2022-10-09T14:05:40.874Z,3.00
2022-10-09T14:08:08.413Z,2.70
2022-10-09T14:10:35.924Z,2.88
2022-10-09T14:13:03.460Z,2.63
2022-10-09T14:15:31.080Z,2.97
2022-10-09T14:17:58.582Z,2.88
2022-10-09T14:20:26.966Z,2.65
2022-10-09T14:22:55.054Z,2.78
2022-10-09T14:25:22.655Z,3.20
2022-10-09T14:27:50.138Z,3.28
2022-10-09T14:30:18.054Z,3.20
2022-10-09T14:32:45.805Z,2.88
2022-10-09T14:35:15.223Z,3.30
2022-10-09T14:37:44.709Z,2.65
2022-10-09T14:40:12.493Z,3.08
2022-10-09T14:42:40.451Z,3.58
2022-10-09T14:45:08.473Z,3.47
2022-10-09T14:47:36.166Z,3.72
2022-10-09T14:50:03.901Z,3.22
2022-10-09T14:52:31.426Z,3.13
2022-10-09T14:54:59.133Z,3.28
2022-10-09T14:57:28.444Z,3.13
2022-10-09T14:59:59.066Z,3.13
2022-10-09T15:02:26.621Z,3.20
2022-10-09T15:04:54.699Z,3.15
2022-10-09T15:07:22.244Z,2.88
2022-10-09T15:09:49.745Z,3.15
2022-10-09T15:12:17.253Z,3.38
2022-10-09T15:14:44.750Z,3.20
2022-10-09T15:17:12.315Z,3.75
2022-10-09T15:19:39.878Z,3.40
2022-10-09T15:22:07.422Z,3.10
2022-10-09T15:24:34.974Z,3.03
2022-10-09T15:27:02.489Z,2.90
2022-10-09T15:29:29.999Z,3.20
2022-10-09T15:31:57.501Z,3.35
2022-10-09T15:34:25.089Z,3.25
2022-10-09T15:36:52.740Z,3.28
2022-10-09T15:39:20.328Z,3.05
2022-10-09T15:41:47.873Z,3.40
2022-10-09T15:44:19.854Z,3.17
2022-10-09T15:46:48.217Z,3.03
2022-10-09T15:49:15.753Z,3.00
2022-10-09T15:51:43.310Z,2.70
2022-10-09T15:54:12.040Z,2.90
2022-10-09T15:56:40.491Z,3.42
2022-10-09T15:59:08.540Z,3.42
2022-10-09T16:01:36.087Z,3.70
2022-10-09T16:04:03.607Z,3.35
2022-10-09T16:06:31.252Z,3.35
2022-10-09T16:08:58.978Z,3.67
2022-10-09T16:11:27.052Z,3.10
2022-10-09T16:13:55.201Z,3.30
2022-10-09T16:16:23.918Z,3.13
2022-10-09T16:18:51.848Z,4.88
2022-10-09T16:21:24.397Z,3.88
2022-10-09T16:23:57.367Z,4.80
2022-10-09T16:26:27.016Z,2.88
2022-10-09T16:28:54.575Z,2.90
2022-10-09T16:31:26.422Z,3.17
2022-10-09T16:33:54.095Z,2.80
2022-10-09T16:36:21.747Z,2.40
2022-10-09T16:38:49.418Z,2.55
2022-10-09T16:41:18.670Z,2.75
2022-10-09T16:43:47.020Z,2.75
2022-10-09T16:46:17.520Z,2.83
2022-10-09T16:48:45.163Z,2.85
2022-10-09T16:51:14.265Z,2.97
2022-10-09T16:53:42.031Z,2.80
2022-10-09T16:56:13.972Z,2.75
2022-10-09T17:01:10.362Z,2.97
2022-10-09T17:03:40.482Z,2.83
2022-10-09T17:06:12.381Z,2.50
2022-10-09T17:08:40.038Z,2.40
2022-10-09T17:11:08.582Z,3.15
2022-10-09T17:13:36.250Z,2.88
2022-10-09T17:16:07.810Z,2.90
2022-10-09T17:18:36.522Z,2.88
2022-10-09T17:21:04.570Z,3.00
2022-10-09T17:23:32.472Z,2.45
2022-10-09T17:26:00.549Z,2.90
2022-10-09T17:28:28.250Z,2.65
2022-10-09T17:30:55.832Z,2.58
2022-10-09T17:33:23.341Z,2.53
2022-10-09T17:35:50.835Z,2.72
2022-10-09T17:38:18.493Z,2.83
2022-10-09T17:40:45.986Z,2.70
2022-10-09T17:43:13.523Z,2.13
2022-10-09T17:45:41.751Z,3.38
2022-10-09T17:48:09.883Z,2.92
2022-10-09T17:50:37.482Z,3.00
2022-10-09T17:53:05.487Z,3.53
2022-10-09T17:55:33.001Z,2.78
2022-10-09T17:58:00.742Z,3.00
2022-10-09T18:00:28.279Z,2.83
2022-10-09T18:02:55.822Z,2.90
2022-10-09T18:05:23.309Z,2.78
2022-10-09T18:07:51.398Z,2.92
2022-10-09T18:10:20.699Z,2.70
2022-10-09T18:12:48.259Z,3.05
2022-10-09T18:15:16.045Z,2.85
2022-10-09T18:17:43.579Z,2.95
2022-10-09T18:20:11.092Z,2.97
2022-10-09T18:22:38.599Z,2.83
2022-10-09T18:25:06.326Z,2.97
2022-10-09T18:27:34.026Z,3.08
2022-10-09T18:30:01.523Z,3.33
2022-10-09T18:32:29.009Z,3.30
2022-10-09T18:34:56.629Z,3.20
2022-10-09T18:37:24.132Z,3.60
2022-10-09T18:39:51.653Z,3.58
2022-10-09T18:42:19.220Z,3.50
2022-10-09T18:44:46.822Z,3.88
2022-10-09T18:47:17.090Z,3.90
2022-10-09T18:49:47.458Z,3.40
2022-10-09T18:52:15.921Z,3.55
2022-10-09T18:54:45.092Z,3.58
2022-10-09T18:57:12.650Z,3.75
2022-10-09T18:59:40.977Z,3.75
2022-10-09T19:02:08.735Z,3.90
2022-10-09T19:04:36.226Z,3.70
2022-10-09T19:07:03.803Z,3.40
2022-10-09T19:09:31.304Z,3.50
2022-10-09T19:11:58.881Z,3.63
2022-10-09T19:14:26.368Z,3.60
2022-10-09T19:16:53.998Z,3.75
2022-10-09T19:19:21.516Z,3.92
2022-10-09T19:21:49.014Z,4.70
2022-10-09T19:24:16.531Z,6.20
2022-10-09T19:26:44.176Z,6.53
2022-10-09T19:29:11.729Z,7.38
2022-10-09T19:31:39.243Z,6.10
2022-10-09T19:34:06.973Z,5.72
2022-10-09T19:36:36.589Z,4.70
2022-10-09T19:39:08.297Z,5.18
2022-10-09T19:41:35.806Z,4.82
2022-10-09T19:44:03.333Z,4.80
2022-10-09T19:46:30.871Z,4.57
2022-10-09T19:48:58.421Z,4.07
2022-10-09T19:51:26.983Z,3.88
2022-10-09T19:53:54.827Z,3.80
2022-10-09T19:56:26.953Z,4.22
2022-10-09T19:58:55.382Z,4.30
2022-10-09T20:01:23.898Z,4.28
2022-10-09T20:03:55.586Z,4.53
2022-10-09T20:06:23.086Z,4.07
2022-10-09T20:08:50.722Z,4.55
2022-10-09T20:11:20.330Z,4.68
2022-10-09T20:13:50.961Z,3.80
2022-10-09T20:16:21.026Z,4.13
2022-10-09T20:18:48.581Z,4.70
2022-10-09T20:21:18.003Z,3.80
2022-10-09T20:23:45.680Z,4.50
2022-10-09T20:26:14.757Z,4.22
2022-10-09T20:28:42.629Z,4.18
2022-10-09T20:31:18.470Z,3.85
2022-10-09T20:33:46.869Z,4.22
2022-10-09T20:36:18.907Z,4.35
2022-10-09T20:38:46.450Z,3.92
2022-10-09T20:41:13.966Z,4.40
2022-10-09T20:43:41.540Z,4.15
2022-10-09T20:46:13.716Z,4.05
2022-10-09T20:48:44.266Z,4.25
2022-10-09T20:51:11.834Z,4.30
2022-10-09T20:53:39.351Z,4.18
2022-10-09T20:56:08.194Z,3.90
2022-10-09T20:58:36.401Z,3.80
2022-10-09T21:01:05.364Z,3.85
2022-10-09T21:03:33.134Z,3.80
2022-10-09T21:06:03.122Z,3.65
2022-10-09T21:08:30.769Z,3.85
2022-10-09T21:10:58.522Z,3.63
2022-10-09T21:13:26.076Z,3.90
2022-10-09T21:15:53.632Z,3.88
2022-10-09T21:18:21.139Z,3.40
2022-10-09T21:20:49.408Z,3.78
2022-10-09T21:23:18.860Z,4.10
2022-10-09T21:25:50.418Z,3.72
2022-10-09T21:28:18.431Z,3.53
2022-10-09T21:30:46.246Z,3.70
2022-10-09T21:33:13.978Z,3.72
2022-10-09T21:35:42.329Z,3.80
2022-10-09T21:38:13.863Z,4.03
2022-10-09T21:40:41.552Z,3.67
2022-10-09T21:43:10.464Z,3.63
2022-10-09T21:45:38.951Z,3.90
2022-10-09T21:48:06.542Z,3.50
2022-10-09T21:50:36.151Z,4.03
2022-10-09T21:53:04.202Z,4.07
2022-10-09T21:55:31.753Z,4.40
2022-10-09T21:57:59.242Z,4.00
2022-10-09T22:00:26.747Z,3.95
2022-10-09T22:02:54.269Z,3.70
2022-10-09T22:05:22.029Z,3.90
2022-10-09T22:07:49.566Z,3.72
2022-10-09T22:10:17.128Z,4.10
2022-10-09T22:12:44.625Z,4.25
2022-10-09T22:15:12.130Z,4.05
2022-10-09T22:17:39.651Z,3.78
2022-10-09T22:20:07.434Z,4.00
2022-10-09T22:22:34.978Z,3.95
2022-10-09T22:25:02.476Z,3.63
2022-10-09T22:27:29.968Z,4.00
2022-10-09T22:29:57.521Z,4.07
2022-10-09T22:32:25.036Z,4.15
2022-10-09T22:34:53.019Z,4.50
2022-10-09T22:37:20.538Z,4.40
2022-10-09T22:39:48.273Z,4.22
2022-10-09T22:42:15.812Z,4.22
2022-10-09T22:44:43.354Z,4.43
2022-10-09T22:47:10.849Z,4.15
2022-10-09T22:49:38.367Z,4.28
2022-10-09T22:52:05.890Z,3.83
2022-10-09T22:54:33.442Z,4.40
2022-10-09T22:57:00.941Z,4.00
2022-10-09T22:59:28.629Z,3.90
2022-10-09T23:01:57.371Z,4.15
2022-10-09T23:04:25.061Z,3.95
2022-10-09T23:06:56.670Z,4.45
2022-10-09T23:09:32.837Z,4.65
2022-10-09T23:12:00.727Z,4.00
2022-10-09T23:14:28.365Z,4.30
2022-10-09T23:16:55.890Z,3.88
2022-10-09T23:19:23.390Z,4.38
2022-10-09T23:21:50.926Z,5.05
2022-10-09T23:24:18.530Z,4.25
2022-10-09T23:26:46.845Z,4.75
2022-10-09T23:29:15.432Z,4.63
2022-10-09T23:31:42.961Z,4.95
2022-10-09T23:34:10.522Z,5.00
2022-10-09T23:36:38.215Z,4.38
2022-10-09T23:39:06.501Z,4.55
2022-10-09T23:41:34.058Z,5.28
2022-10-09T23:44:01.598Z,4.75
2022-10-09T23:46:31.600Z,4.82
2022-10-09T23:48:59.424Z,4.90
2022-10-09T23:51:27.305Z,5.57
2022-10-09T23:53:55.093Z,5.32
2022-10-09T23:56:30.079Z,6.00
2022-10-09T23:58:58.201Z,6.05
